sensor_id;sensor_type;location;lat;lon;timestamp;temperature;humidity
67273;DHT22;54190;49.770;9.250;2023-05-10T00:00:15;15.30;99.90
67273;DHT22;54190;49.770;9.250;2023-05-10T00:02:41;15.30;99.90
67273;DHT22;54190;49.770;9.250;2023-05-10T00:05:07;15.20;99.90
67273;DHT22;54190;49.770;9.250;2023-05-10T00:07:33;15.10;99.90
67273;DHT22;54190;49.770;9.250;2023-05-10T00:09:58;15.00;99.90
67273;DHT22;54190;49.770;9.250;2023-05-10T00:12:24;14.90;99.90
67273;DHT22;54190;49.770;9.250;2023-05-10T00:14:50;14.80;99.90
67273;DHT22;54190;49.770;9.250;2023-05-10T00:17:15;14.80;99.90
67273;DHT22;54190;49.770;9.250;2023-05-10T00:19:41;14.70;99.90
67273;DHT22;54190;49.770;9.250;2023-05-10T00:22:07;14.70;99.90
67273;DHT22;54190;49.770;9.250;2023-05-10T00:24:32;14.70;99.90
67273;DHT22;54190;49.770;9.250;2023-05-10T00:26:58;14.70;99.90
67273;DHT22;54190;49.770;9.250;2023-05-10T00:29:23;14.70;99.90
67273;DHT22;54190;49.770;9.250;2023-05-10T00:31:49;14.60;99.90
67273;DHT22;54190;49.770;9.250;2023-05-10T00:34:15;14.70;99.90
67273;DHT22;54190;49.770;9.250;2023-05-10T00:36:40;14.70;99.90
67273;DHT22;54190;49.770;9.250;2023-05-10T00:39:06;14.70;99.90
67273;DHT22;54190;49.770;9.250;2023-05-10T00:41:33;14.80;99.90
67273;DHT22;54190;49.770;9.250;2023-05-10T00:44:00;14.70;99.90
67273;DHT22;54190;49.770;9.250;2023-05-10T00:46:28;14.70;99.90
67273;DHT22;54190;49.770;9.250;2023-05-10T00:48:54;14.70;99.90
67273;DHT22;54190;49.770;9.250;2023-05-10T00:51:20;14.60;99.90
67273;DHT22;54190;49.770;9.250;2023-05-10T00:53:46;14.60;99.90
67273;DHT22;54190;49.770;9.250;2023-05-10T00:56:12;14.50;99.90
67273;DHT22;54190;49.770;9.250;2023-05-10T00:58:39;14.50;99.90
67273;DHT22;54190;49.770;9.250;2023-05-10T01:01:05;14.50;99.90
67273;DHT22;54190;49.770;9.250;2023-05-10T01:03:31;14.50;99.90
67273;DHT22;54190;49.770;9.250;2023-05-10T01:05:57;14.40;99.90
67273;DHT22;54190;49.770;9.250;2023-05-10T01:08:24;14.30;99.90
67273;DHT22;54190;49.770;9.250;2023-05-10T01:10:50;14.30;99.90
67273;DHT22;54190;49.770;9.250;2023-05-10T01:13:39;14.20;99.90
67273;DHT22;54190;49.770;9.250;2023-05-10T01:16:06;14.20;99.90
67273;DHT22;54190;49.770;9.250;2023-05-10T01:18:39;14.20;99.90
67273;DHT22;54190;49.770;9.250;2023-05-10T01:22:02;14.10;99.90
67273;DHT22;54190;49.770;9.250;2023-05-10T01:32:28;14.00;99.90
67273;DHT22;54190;49.770;9.250;2023-05-10T01:35:15;13.90;99.90
67273;DHT22;54190;49.770;9.250;2023-05-10T01:37:46;13.90;99.90
67273;DHT22;54190;49.770;9.250;2023-05-10T01:40:37;13.90;99.90
67273;DHT22;54190;49.770;9.250;2023-05-10T01:43:11;13.90;99.90
67273;DHT22;54190;49.770;9.250;2023-05-10T01:45:44;13.80;99.90
67273;DHT22;54190;49.770;9.250;2023-05-10T01:48:14;13.80;99.90
67273;DHT22;54190;49.770;9.250;2023-05-10T01:50:43;13.80;99.90
67273;DHT22;54190;49.770;9.250;2023-05-10T01:53:11;13.80;99.90
67273;DHT22;54190;49.770;9.250;2023-05-10T01:55:45;13.80;99.90
67273;DHT22;54190;49.770;9.250;2023-05-10T01:58:32;13.80;99.90
67273;DHT22;54190;49.770;9.250;2023-05-10T02:01:01;13.80;99.90
67273;DHT22;54190;49.770;9.250;2023-05-10T02:03:29;13.80;99.90
67273;DHT22;54190;49.770;9.250;2023-05-10T02:05:57;13.80;99.90
67273;DHT22;54190;49.770;9.250;2023-05-10T02:08:23;13.80;99.90
67273;DHT22;54190;49.770;9.250;2023-05-10T02:10:52;13.80;99.90
67273;DHT22;54190;49.770;9.250;2023-05-10T02:13:18;13.80;99.90
67273;DHT22;54190;49.770;9.250;2023-05-10T02:15:48;13.80;99.90
67273;DHT22;54190;49.770;9.250;2023-05-10T02:18:14;13.80;99.90
67273;DHT22;54190;49.770;9.250;2023-05-10T02:20:42;13.80;99.90
67273;DHT22;54190;49.770;9.250;2023-05-10T02:23:09;13.80;99.90
67273;DHT22;54190;49.770;9.250;2023-05-10T02:25:36;13.70;99.90
67273;DHT22;54190;49.770;9.250;2023-05-10T02:28:03;13.70;99.90
67273;DHT22;54190;49.770;9.250;2023-05-10T02:30:31;13.70;99.90
67273;DHT22;54190;49.770;9.250;2023-05-10T02:32:58;13.70;99.90
67273;DHT22;54190;49.770;9.250;2023-05-10T02:35:26;13.70;99.90
67273;DHT22;54190;49.770;9.250;2023-05-10T02:37:53;13.70;99.90
67273;DHT22;54190;49.770;9.250;2023-05-10T02:40:22;13.70;99.90
67273;DHT22;54190;49.770;9.250;2023-05-10T02:42:50;13.70;99.90
67273;DHT22;54190;49.770;9.250;2023-05-10T02:45:20;13.60;99.90
67273;DHT22;54190;49.770;9.250;2023-05-10T02:47:47;13.60;99.90
67273;DHT22;54190;49.770;9.250;2023-05-10T02:50:13;13.60;99.90
67273;DHT22;54190;49.770;9.250;2023-05-10T02:52:44;13.50;99.90
67273;DHT22;54190;49.770;9.250;2023-05-10T02:55:12;13.60;99.90
67273;DHT22;54190;49.770;9.250;2023-05-10T02:57:43;13.50;99.90
67273;DHT22;54190;49.770;9.250;2023-05-10T03:00:11;13.60;99.90
67273;DHT22;54190;49.770;9.250;2023-05-10T03:02:37;13.50;99.90
67273;DHT22;54190;49.770;9.250;2023-05-10T03:05:03;13.50;99.90
67273;DHT22;54190;49.770;9.250;2023-05-10T03:07:29;13.50;99.90
67273;DHT22;54190;49.770;9.250;2023-05-10T03:09:55;13.50;99.90
67273;DHT22;54190;49.770;9.250;2023-05-10T03:12:41;13.50;99.90
67273;DHT22;54190;49.770;9.250;2023-05-10T03:21:30;13.50;99.90
67273;DHT22;54190;49.770;9.250;2023-05-10T03:24:06;13.50;99.90
67273;DHT22;54190;49.770;9.250;2023-05-10T03:26:34;13.50;99.90
67273;DHT22;54190;49.770;9.250;2023-05-10T03:29:12;13.50;99.90
67273;DHT22;54190;49.770;9.250;2023-05-10T03:31:38;13.50;99.90
67273;DHT22;54190;49.770;9.250;2023-05-10T03:34:04;13.40;99.90
67273;DHT22;54190;49.770;9.250;2023-05-10T03:36:31;13.40;99.90
67273;DHT22;54190;49.770;9.250;2023-05-10T03:38:58;13.40;99.90
67273;DHT22;54190;49.770;9.250;2023-05-10T03:41:24;13.30;99.90
67273;DHT22;54190;49.770;9.250;2023-05-10T03:43:51;13.30;99.90
67273;DHT22;54190;49.770;9.250;2023-05-10T03:46:16;13.30;99.90
67273;DHT22;54190;49.770;9.250;2023-05-10T03:48:43;13.30;99.90
67273;DHT22;54190;49.770;9.250;2023-05-10T03:51:09;13.30;99.90
67273;DHT22;54190;49.770;9.250;2023-05-10T03:53:34;13.30;99.90
67273;DHT22;54190;49.770;9.250;2023-05-10T03:56:00;13.30;99.90
67273;DHT22;54190;49.770;9.250;2023-05-10T03:58:26;13.20;99.90
67273;DHT22;54190;49.770;9.250;2023-05-10T04:00:52;13.20;99.90
67273;DHT22;54190;49.770;9.250;2023-05-10T04:03:18;13.20;99.90
67273;DHT22;54190;49.770;9.250;2023-05-10T04:05:43;13.20;99.90
67273;DHT22;54190;49.770;9.250;2023-05-10T04:08:09;13.20;99.90
67273;DHT22;54190;49.770;9.250;2023-05-10T04:10:35;13.20;99.90
67273;DHT22;54190;49.770;9.250;2023-05-10T04:13:00;13.20;99.90
67273;DHT22;54190;49.770;9.250;2023-05-10T04:15:26;13.20;99.90
67273;DHT22;54190;49.770;9.250;2023-05-10T04:17:52;13.20;99.90
67273;DHT22;54190;49.770;9.250;2023-05-10T04:20:17;13.20;99.90
67273;DHT22;54190;49.770;9.250;2023-05-10T04:22:43;13.20;99.90
67273;DHT22;54190;49.770;9.250;2023-05-10T04:25:09;13.10;99.90
67273;DHT22;54190;49.770;9.250;2023-05-10T04:27:35;13.20;99.90
67273;DHT22;54190;49.770;9.250;2023-05-10T04:30:00;13.20;99.90
67273;DHT22;54190;49.770;9.250;2023-05-10T04:32:26;13.20;99.90
67273;DHT22;54190;49.770;9.250;2023-05-10T04:34:52;13.30;99.90
67273;DHT22;54190;49.770;9.250;2023-05-10T04:37:18;13.30;99.90
67273;DHT22;54190;49.770;9.250;2023-05-10T04:39:44;13.30;99.90
67273;DHT22;54190;49.770;9.250;2023-05-10T04:42:10;13.30;99.90
67273;DHT22;54190;49.770;9.250;2023-05-10T04:44:36;13.30;99.90
67273;DHT22;54190;49.770;9.250;2023-05-10T04:47:02;13.30;99.90
67273;DHT22;54190;49.770;9.250;2023-05-10T04:49:29;13.30;99.90
67273;DHT22;54190;49.770;9.250;2023-05-10T04:51:55;13.40;99.90
67273;DHT22;54190;49.770;9.250;2023-05-10T04:54:21;13.30;99.90
67273;DHT22;54190;49.770;9.250;2023-05-10T04:56:46;13.40;99.90
67273;DHT22;54190;49.770;9.250;2023-05-10T04:59:12;13.40;99.90
67273;DHT22;54190;49.770;9.250;2023-05-10T05:01:38;13.40;99.90
67273;DHT22;54190;49.770;9.250;2023-05-10T05:04:03;13.40;99.90
67273;DHT22;54190;49.770;9.250;2023-05-10T05:06:29;13.40;99.90
67273;DHT22;54190;49.770;9.250;2023-05-10T05:08:55;13.50;99.90
67273;DHT22;54190;49.770;9.250;2023-05-10T05:11:20;13.50;99.90
67273;DHT22;54190;49.770;9.250;2023-05-10T05:13:46;13.50;99.90
67273;DHT22;54190;49.770;9.250;2023-05-10T05:16:12;13.40;99.90
67273;DHT22;54190;49.770;9.250;2023-05-10T05:18:38;13.50;99.90
67273;DHT22;54190;49.770;9.250;2023-05-10T05:21:14;13.50;99.90
67273;DHT22;54190;49.770;9.250;2023-05-10T05:23:40;13.50;99.90
67273;DHT22;54190;49.770;9.250;2023-05-10T05:26:06;13.50;99.90
67273;DHT22;54190;49.770;9.250;2023-05-10T05:28:31;13.40;99.90
67273;DHT22;54190;49.770;9.250;2023-05-10T05:30:59;13.50;99.90
67273;DHT22;54190;49.770;9.250;2023-05-10T05:33:24;13.50;99.90
67273;DHT22;54190;49.770;9.250;2023-05-10T05:35:50;13.60;99.90
67273;DHT22;54190;49.770;9.250;2023-05-10T05:38:16;13.50;99.90
67273;DHT22;54190;49.770;9.250;2023-05-10T05:40:42;13.50;99.90
67273;DHT22;54190;49.770;9.250;2023-05-10T05:43:08;13.50;99.90
67273;DHT22;54190;49.770;9.250;2023-05-10T05:45:34;13.50;99.90
67273;DHT22;54190;49.770;9.250;2023-05-10T05:47:59;13.50;99.90
67273;DHT22;54190;49.770;9.250;2023-05-10T05:50:25;13.50;99.90
67273;DHT22;54190;49.770;9.250;2023-05-10T05:52:51;13.40;99.90
67273;DHT22;54190;49.770;9.250;2023-05-10T05:55:16;13.50;99.90
67273;DHT22;54190;49.770;9.250;2023-05-10T05:57:42;13.50;99.90
67273;DHT22;54190;49.770;9.250;2023-05-10T06:00:08;13.40;99.90
67273;DHT22;54190;49.770;9.250;2023-05-10T06:02:39;13.40;99.90
67273;DHT22;54190;49.770;9.250;2023-05-10T06:05:05;13.30;99.90
67273;DHT22;54190;49.770;9.250;2023-05-10T06:07:31;13.30;99.90
67273;DHT22;54190;49.770;9.250;2023-05-10T06:09:57;13.40;99.90
67273;DHT22;54190;49.770;9.250;2023-05-10T06:12:23;13.30;99.90
67273;DHT22;54190;49.770;9.250;2023-05-10T06:14:48;13.30;99.90
67273;DHT22;54190;49.770;9.250;2023-05-10T06:17:14;13.40;99.90
67273;DHT22;54190;49.770;9.250;2023-05-10T06:19:39;13.40;99.90
67273;DHT22;54190;49.770;9.250;2023-05-10T06:22:05;13.40;99.90
67273;DHT22;54190;49.770;9.250;2023-05-10T06:24:30;13.30;99.90
67273;DHT22;54190;49.770;9.250;2023-05-10T06:26:56;13.30;99.90
67273;DHT22;54190;49.770;9.250;2023-05-10T06:29:23;13.30;99.90
67273;DHT22;54190;49.770;9.250;2023-05-10T06:31:49;13.30;99.90
67273;DHT22;54190;49.770;9.250;2023-05-10T06:34:14;13.30;99.90
67273;DHT22;54190;49.770;9.250;2023-05-10T06:36:40;13.30;99.90
67273;DHT22;54190;49.770;9.250;2023-05-10T06:39:06;13.20;99.90
67273;DHT22;54190;49.770;9.250;2023-05-10T06:41:32;13.30;99.90
67273;DHT22;54190;49.770;9.250;2023-05-10T06:43:58;13.30;99.90
67273;DHT22;54190;49.770;9.250;2023-05-10T06:46:23;13.30;99.90
67273;DHT22;54190;49.770;9.250;2023-05-10T06:48:49;13.40;99.90
67273;DHT22;54190;49.770;9.250;2023-05-10T06:51:14;13.30;99.90
67273;DHT22;54190;49.770;9.250;2023-05-10T06:53:40;13.40;99.90
67273;DHT22;54190;49.770;9.250;2023-05-10T06:56:06;13.50;99.90
67273;DHT22;54190;49.770;9.250;2023-05-10T06:58:31;13.50;99.90
67273;DHT22;54190;49.770;9.250;2023-05-10T07:01:04;13.60;99.90
67273;DHT22;54190;49.770;9.250;2023-05-10T07:03:31;13.60;99.90
67273;DHT22;54190;49.770;9.250;2023-05-10T07:06:03;13.70;99.90
67273;DHT22;54190;49.770;9.250;2023-05-10T07:08:35;13.80;99.90
67273;DHT22;54190;49.770;9.250;2023-05-10T07:11:05;13.80;99.90
67273;DHT22;54190;49.770;9.250;2023-05-10T07:13:31;13.90;99.90
67273;DHT22;54190;49.770;9.250;2023-05-10T07:15:58;13.90;99.90
67273;DHT22;54190;49.770;9.250;2023-05-10T07:18:24;14.00;99.90
67273;DHT22;54190;49.770;9.250;2023-05-10T07:20:50;14.10;99.90
67273;DHT22;54190;49.770;9.250;2023-05-10T07:23:15;14.20;99.90
67273;DHT22;54190;49.770;9.250;2023-05-10T07:25:45;14.30;99.90
67273;DHT22;54190;49.770;9.250;2023-05-10T07:28:11;14.30;99.90
67273;DHT22;54190;49.770;9.250;2023-05-10T07:30:36;14.40;99.90
67273;DHT22;54190;49.770;9.250;2023-05-10T07:33:02;14.40;99.90
67273;DHT22;54190;49.770;9.250;2023-05-10T07:35:28;14.40;99.90
67273;DHT22;54190;49.770;9.250;2023-05-10T07:37:53;14.40;99.90
67273;DHT22;54190;49.770;9.250;2023-05-10T07:40:19;14.30;99.90
67273;DHT22;54190;49.770;9.250;2023-05-10T07:42:45;14.30;99.90
67273;DHT22;54190;49.770;9.250;2023-05-10T07:45:10;14.30;99.90
67273;DHT22;54190;49.770;9.250;2023-05-10T07:47:36;14.30;99.90
67273;DHT22;54190;49.770;9.250;2023-05-10T07:50:02;14.30;99.90
67273;DHT22;54190;49.770;9.250;2023-05-10T07:52:27;14.30;99.90
67273;DHT22;54190;49.770;9.250;2023-05-10T07:54:53;14.30;99.90
67273;DHT22;54190;49.770;9.250;2023-05-10T07:57:19;14.40;99.90
67273;DHT22;54190;49.770;9.250;2023-05-10T07:59:44;14.40;99.90
67273;DHT22;54190;49.770;9.250;2023-05-10T08:02:10;14.40;99.90
67273;DHT22;54190;49.770;9.250;2023-05-10T08:04:36;14.50;99.90
67273;DHT22;54190;49.770;9.250;2023-05-10T08:07:02;14.50;99.90
67273;DHT22;54190;49.770;9.250;2023-05-10T08:09:27;14.50;99.90
67273;DHT22;54190;49.770;9.250;2023-05-10T08:11:53;14.50;99.90
67273;DHT22;54190;49.770;9.250;2023-05-10T08:14:18;14.50;99.90
67273;DHT22;54190;49.770;9.250;2023-05-10T08:16:44;14.60;99.90
67273;DHT22;54190;49.770;9.250;2023-05-10T08:19:10;14.60;99.90
67273;DHT22;54190;49.770;9.250;2023-05-10T08:21:35;14.60;99.90
67273;DHT22;54190;49.770;9.250;2023-05-10T08:24:01;14.70;99.90
67273;DHT22;54190;49.770;9.250;2023-05-10T08:26:27;14.70;99.90
67273;DHT22;54190;49.770;9.250;2023-05-10T08:28:53;14.70;99.90
67273;DHT22;54190;49.770;9.250;2023-05-10T08:31:18;14.80;99.90
67273;DHT22;54190;49.770;9.250;2023-05-10T08:33:44;14.80;99.90
67273;DHT22;54190;49.770;9.250;2023-05-10T08:36:10;14.80;99.90
67273;DHT22;54190;49.770;9.250;2023-05-10T08:38:37;14.90;99.90
67273;DHT22;54190;49.770;9.250;2023-05-10T08:41:03;14.90;99.90
67273;DHT22;54190;49.770;9.250;2023-05-10T08:43:29;15.00;99.90
67273;DHT22;54190;49.770;9.250;2023-05-10T08:45:56;15.00;99.90
67273;DHT22;54190;49.770;9.250;2023-05-10T08:48:24;15.00;99.90
67273;DHT22;54190;49.770;9.250;2023-05-10T08:50:54;15.10;99.90
67273;DHT22;54190;49.770;9.250;2023-05-10T08:53:24;15.10;99.90
67273;DHT22;54190;49.770;9.250;2023-05-10T08:55:52;15.10;99.90
67273;DHT22;54190;49.770;9.250;2023-05-10T08:58:19;15.20;99.90
67273;DHT22;54190;49.770;9.250;2023-05-10T09:00:45;15.10;99.90
67273;DHT22;54190;49.770;9.250;2023-05-10T09:03:12;15.10;99.90
67273;DHT22;54190;49.770;9.250;2023-05-10T09:05:38;15.20;99.90
67273;DHT22;54190;49.770;9.250;2023-05-10T09:08:05;15.30;99.90
67273;DHT22;54190;49.770;9.250;2023-05-10T09:10:31;15.30;99.90
67273;DHT22;54190;49.770;9.250;2023-05-10T09:12:58;15.40;99.90
67273;DHT22;54190;49.770;9.250;2023-05-10T09:15:24;15.40;99.90
67273;DHT22;54190;49.770;9.250;2023-05-10T09:17:49;15.40;99.90
67273;DHT22;54190;49.770;9.250;2023-05-10T09:20:15;15.40;99.90
67273;DHT22;54190;49.770;9.250;2023-05-10T09:22:43;15.50;99.90
67273;DHT22;54190;49.770;9.250;2023-05-10T09:25:16;15.50;99.90
67273;DHT22;54190;49.770;9.250;2023-05-10T09:27:45;15.50;99.90
67273;DHT22;54190;49.770;9.250;2023-05-10T09:30:23;15.50;99.90
67273;DHT22;54190;49.770;9.250;2023-05-10T09:32:49;15.50;99.90
67273;DHT22;54190;49.770;9.250;2023-05-10T09:35:18;15.40;99.90
67273;DHT22;54190;49.770;9.250;2023-05-10T09:37:49;15.40;99.90
67273;DHT22;54190;49.770;9.250;2023-05-10T09:40:16;15.40;99.90
67273;DHT22;54190;49.770;9.250;2023-05-10T09:42:50;15.40;99.90
67273;DHT22;54190;49.770;9.250;2023-05-10T09:45:16;15.50;99.90
67273;DHT22;54190;49.770;9.250;2023-05-10T09:47:42;15.60;99.90
67273;DHT22;54190;49.770;9.250;2023-05-10T09:50:09;15.70;99.90
67273;DHT22;54190;49.770;9.250;2023-05-10T09:55:13;15.70;99.90
67273;DHT22;54190;49.770;9.250;2023-05-10T09:57:39;15.70;99.90
67273;DHT22;54190;49.770;9.250;2023-05-10T10:00:05;15.80;99.90
67273;DHT22;54190;49.770;9.250;2023-05-10T10:02:39;15.80;99.90
67273;DHT22;54190;49.770;9.250;2023-05-10T10:05:06;15.90;99.90
67273;DHT22;54190;49.770;9.250;2023-05-10T10:07:32;15.90;99.90
67273;DHT22;54190;49.770;9.250;2023-05-10T10:09:58;15.90;99.90
67273;DHT22;54190;49.770;9.250;2023-05-10T10:12:25;15.90;99.90
67273;DHT22;54190;49.770;9.250;2023-05-10T10:14:50;16.00;99.90
67273;DHT22;54190;49.770;9.250;2023-05-10T10:17:17;16.00;99.90
67273;DHT22;54190;49.770;9.250;2023-05-10T10:19:42;16.10;99.90
67273;DHT22;54190;49.770;9.250;2023-05-10T10:22:09;16.20;99.90
67273;DHT22;54190;49.770;9.250;2023-05-10T10:24:38;16.30;99.90
67273;DHT22;54190;49.770;9.250;2023-05-10T10:27:26;16.60;99.90
67273;DHT22;54190;49.770;9.250;2023-05-10T10:35:12;16.90;99.90
67273;DHT22;54190;49.770;9.250;2023-05-10T10:37:46;16.90;99.90
67273;DHT22;54190;49.770;9.250;2023-05-10T10:40:29;16.90;99.90
67273;DHT22;54190;49.770;9.250;2023-05-10T10:42:55;17.00;99.90
67273;DHT22;54190;49.770;9.250;2023-05-10T10:45:22;17.00;99.90
67273;DHT22;54190;49.770;9.250;2023-05-10T10:47:48;17.00;99.90
67273;DHT22;54190;49.770;9.250;2023-05-10T10:50:14;17.00;99.90
67273;DHT22;54190;49.770;9.250;2023-05-10T10:52:42;17.00;99.90
67273;DHT22;54190;49.770;9.250;2023-05-10T10:55:12;16.90;99.90
67273;DHT22;54190;49.770;9.250;2023-05-10T11:02:49;16.80;99.90
67273;DHT22;54190;49.770;9.250;2023-05-10T11:08:15;17.00;99.90
67273;DHT22;54190;49.770;9.250;2023-05-10T11:10:50;17.10;99.90
67273;DHT22;54190;49.770;9.250;2023-05-10T11:13:30;17.00;99.90
67273;DHT22;54190;49.770;9.250;2023-05-10T11:15:57;16.90;99.90
67273;DHT22;54190;49.770;9.250;2023-05-10T11:18:26;16.70;99.90
67273;DHT22;54190;49.770;9.250;2023-05-10T11:20:59;16.70;99.90
67273;DHT22;54190;49.770;9.250;2023-05-10T11:23:33;16.50;99.90
67273;DHT22;54190;49.770;9.250;2023-05-10T11:26:12;16.50;99.90
67273;DHT22;54190;49.770;9.250;2023-05-10T11:28:46;16.50;99.90
67273;DHT22;54190;49.770;9.250;2023-05-10T11:31:18;16.50;99.90
67273;DHT22;54190;49.770;9.250;2023-05-10T11:33:44;16.40;99.90
67273;DHT22;54190;49.770;9.250;2023-05-10T11:36:18;16.10;99.90
67273;DHT22;54190;49.770;9.250;2023-05-10T11:38:44;16.00;99.90
67273;DHT22;54190;49.770;9.250;2023-05-10T11:41:10;15.90;99.90
67273;DHT22;54190;49.770;9.250;2023-05-10T11:43:39;15.70;99.90
67273;DHT22;54190;49.770;9.250;2023-05-10T11:46:12;15.40;99.90
67273;DHT22;54190;49.770;9.250;2023-05-10T11:48:42;15.20;99.90
67273;DHT22;54190;49.770;9.250;2023-05-10T11:51:08;15.30;99.90
67273;DHT22;54190;49.770;9.250;2023-05-10T11:53:34;15.30;99.90
67273;DHT22;54190;49.770;9.250;2023-05-10T11:56:08;15.00;99.90
67273;DHT22;54190;49.770;9.250;2023-05-10T11:58:34;14.90;99.90
67273;DHT22;54190;49.770;9.250;2023-05-10T12:01:01;14.70;99.90
67273;DHT22;54190;49.770;9.250;2023-05-10T12:03:27;14.50;99.90
67273;DHT22;54190;49.770;9.250;2023-05-10T12:05:54;14.50;99.90
67273;DHT22;54190;49.770;9.250;2023-05-10T12:08:22;14.50;99.90
67273;DHT22;54190;49.770;9.250;2023-05-10T12:10:48;14.60;99.90
67273;DHT22;54190;49.770;9.250;2023-05-10T12:13:14;14.50;99.90
67273;DHT22;54190;49.770;9.250;2023-05-10T12:15:41;14.50;99.90
67273;DHT22;54190;49.770;9.250;2023-05-10T12:18:14;14.70;99.90
67273;DHT22;54190;49.770;9.250;2023-05-10T12:20:40;14.90;99.90
67273;DHT22;54190;49.770;9.250;2023-05-10T12:23:08;15.00;99.90
67273;DHT22;54190;49.770;9.250;2023-05-10T12:25:36;15.00;99.90
67273;DHT22;54190;49.770;9.250;2023-05-10T12:28:07;15.10;99.90
67273;DHT22;54190;49.770;9.250;2023-05-10T12:30:34;15.30;99.90
67273;DHT22;54190;49.770;9.250;2023-05-10T12:33:20;15.50;99.90
67273;DHT22;54190;49.770;9.250;2023-05-10T12:35:50;15.60;99.90
67273;DHT22;54190;49.770;9.250;2023-05-10T12:38:32;15.70;99.90
67273;DHT22;54190;49.770;9.250;2023-05-10T12:40:59;15.80;99.90
67273;DHT22;54190;49.770;9.250;2023-05-10T12:43:25;15.90;99.90
67273;DHT22;54190;49.770;9.250;2023-05-10T12:45:51;16.00;99.90
67273;DHT22;54190;49.770;9.250;2023-05-10T12:48:17;16.00;99.90
67273;DHT22;54190;49.770;9.250;2023-05-10T12:50:42;16.10;99.90
67273;DHT22;54190;49.770;9.250;2023-05-10T12:53:08;16.10;99.90
67273;DHT22;54190;49.770;9.250;2023-05-10T12:55:34;16.10;99.90
67273;DHT22;54190;49.770;9.250;2023-05-10T12:57:59;16.10;99.90
67273;DHT22;54190;49.770;9.250;2023-05-10T13:00:25;16.10;99.90
67273;DHT22;54190;49.770;9.250;2023-05-10T13:02:51;16.10;99.90
67273;DHT22;54190;49.770;9.250;2023-05-10T13:05:17;16.00;99.90
67273;DHT22;54190;49.770;9.250;2023-05-10T13:07:43;15.90;99.90
67273;DHT22;54190;49.770;9.250;2023-05-10T13:10:09;15.60;99.90
67273;DHT22;54190;49.770;9.250;2023-05-10T13:12:36;15.50;99.90
67273;DHT22;54190;49.770;9.250;2023-05-10T13:15:02;15.30;99.90
67273;DHT22;54190;49.770;9.250;2023-05-10T13:17:28;15.20;99.90
67273;DHT22;54190;49.770;9.250;2023-05-10T13:19:54;15.30;99.90
67273;DHT22;54190;49.770;9.250;2023-05-10T13:22:20;15.40;99.90
67273;DHT22;54190;49.770;9.250;2023-05-10T13:24:46;15.60;99.90
67273;DHT22;54190;49.770;9.250;2023-05-10T13:27:11;15.70;99.90
67273;DHT22;54190;49.770;9.250;2023-05-10T13:29:37;15.70;99.90
67273;DHT22;54190;49.770;9.250;2023-05-10T13:32:03;15.80;99.90
67273;DHT22;54190;49.770;9.250;2023-05-10T13:34:31;15.80;99.90
67273;DHT22;54190;49.770;9.250;2023-05-10T13:36:57;15.70;99.90
67273;DHT22;54190;49.770;9.250;2023-05-10T13:39:23;15.70;99.90
67273;DHT22;54190;49.770;9.250;2023-05-10T13:41:48;15.70;99.90
67273;DHT22;54190;49.770;9.250;2023-05-10T13:44:14;15.80;99.90
67273;DHT22;54190;49.770;9.250;2023-05-10T13:46:41;16.00;99.90
67273;DHT22;54190;49.770;9.250;2023-05-10T13:49:08;16.20;99.90
67273;DHT22;54190;49.770;9.250;2023-05-10T13:51:34;16.30;99.90
67273;DHT22;54190;49.770;9.250;2023-05-10T13:54:04;16.40;99.90
67273;DHT22;54190;49.770;9.250;2023-05-10T13:56:29;16.40;99.90
67273;DHT22;54190;49.770;9.250;2023-05-10T13:58:56;16.60;99.90
67273;DHT22;54190;49.770;9.250;2023-05-10T14:01:22;16.70;99.90
67273;DHT22;54190;49.770;9.250;2023-05-10T14:03:48;16.80;99.90
67273;DHT22;54190;49.770;9.250;2023-05-10T14:06:14;16.80;99.90
67273;DHT22;54190;49.770;9.250;2023-05-10T14:08:40;16.80;99.90
67273;DHT22;54190;49.770;9.250;2023-05-10T14:11:05;16.80;99.90
67273;DHT22;54190;49.770;9.250;2023-05-10T14:13:31;16.90;99.90
67273;DHT22;54190;49.770;9.250;2023-05-10T14:15:57;16.90;99.90
67273;DHT22;54190;49.770;9.250;2023-05-10T14:18:22;16.90;99.90
67273;DHT22;54190;49.770;9.250;2023-05-10T14:20:48;16.90;99.90
67273;DHT22;54190;49.770;9.250;2023-05-10T14:23:14;16.90;99.90
67273;DHT22;54190;49.770;9.250;2023-05-10T14:25:40;16.90;99.90
67273;DHT22;54190;49.770;9.250;2023-05-10T14:28:06;16.80;99.90
67273;DHT22;54190;49.770;9.250;2023-05-10T14:30:32;16.80;99.90
67273;DHT22;54190;49.770;9.250;2023-05-10T14:33:00;16.90;99.90
67273;DHT22;54190;49.770;9.250;2023-05-10T14:35:27;16.80;99.90
67273;DHT22;54190;49.770;9.250;2023-05-10T14:37:53;16.80;99.90
67273;DHT22;54190;49.770;9.250;2023-05-10T14:40:18;16.90;99.90
67273;DHT22;54190;49.770;9.250;2023-05-10T14:42:44;16.90;99.90
67273;DHT22;54190;49.770;9.250;2023-05-10T14:45:10;17.00;99.90
67273;DHT22;54190;49.770;9.250;2023-05-10T14:47:36;17.00;99.90
67273;DHT22;54190;49.770;9.250;2023-05-10T14:50:02;17.00;99.90
67273;DHT22;54190;49.770;9.250;2023-05-10T14:52:28;17.10;99.90
67273;DHT22;54190;49.770;9.250;2023-05-10T14:54:53;17.10;99.90
67273;DHT22;54190;49.770;9.250;2023-05-10T14:57:19;17.10;99.90
67273;DHT22;54190;49.770;9.250;2023-05-10T14:59:45;17.10;99.90
67273;DHT22;54190;49.770;9.250;2023-05-10T15:02:10;17.10;99.90
67273;DHT22;54190;49.770;9.250;2023-05-10T15:04:36;17.10;99.90
67273;DHT22;54190;49.770;9.250;2023-05-10T15:07:02;17.30;99.90
67273;DHT22;54190;49.770;9.250;2023-05-10T15:09:28;17.30;99.90
67273;DHT22;54190;49.770;9.250;2023-05-10T15:11:54;17.30;99.90
67273;DHT22;54190;49.770;9.250;2023-05-10T15:14:20;17.40;99.90
67273;DHT22;54190;49.770;9.250;2023-05-10T15:16:45;17.30;99.90
67273;DHT22;54190;49.770;9.250;2023-05-10T15:19:12;17.30;99.90
67273;DHT22;54190;49.770;9.250;2023-05-10T15:21:37;17.30;99.90
67273;DHT22;54190;49.770;9.250;2023-05-10T15:24:08;17.20;99.90
67273;DHT22;54190;49.770;9.250;2023-05-10T15:26:33;17.20;99.90
67273;DHT22;54190;49.770;9.250;2023-05-10T15:28:59;17.10;99.90
67273;DHT22;54190;49.770;9.250;2023-05-10T15:31:25;17.10;99.90
67273;DHT22;54190;49.770;9.250;2023-05-10T15:33:50;17.10;99.90
67273;DHT22;54190;49.770;9.250;2023-05-10T15:36:16;17.10;99.90
67273;DHT22;54190;49.770;9.250;2023-05-10T15:38:43;17.00;99.90
67273;DHT22;54190;49.770;9.250;2023-05-10T15:41:09;17.00;99.90
67273;DHT22;54190;49.770;9.250;2023-05-10T15:43:35;16.90;99.90
67273;DHT22;54190;49.770;9.250;2023-05-10T15:46:01;16.80;99.90
67273;DHT22;54190;49.770;9.250;2023-05-10T15:48:27;16.70;99.90
67273;DHT22;54190;49.770;9.250;2023-05-10T15:50:52;16.70;99.90
67273;DHT22;54190;49.770;9.250;2023-05-10T15:53:18;16.70;99.90
67273;DHT22;54190;49.770;9.250;2023-05-10T15:55:44;16.70;99.90
67273;DHT22;54190;49.770;9.250;2023-05-10T15:58:09;16.70;99.90
67273;DHT22;54190;49.770;9.250;2023-05-10T16:00:35;16.80;99.90